sensor_id;sensor_type;location;lat;lon;timestamp;P1;durP1;ratioP1;P2;durP2;ratioP2
9536;SDS011;4807;48.024;11.726;2023-02-26T00:02:10;0.50;;;0.50;;
9536;SDS011;4807;48.024;11.726;2023-02-26T00:05:18;1.23;;;0.60;;
9536;SDS011;4807;48.024;11.726;2023-02-26T00:08:28;0.53;;;0.53;;
9536;SDS011;4807;48.024;11.726;2023-02-26T00:11:37;0.57;;;0.57;;
9536;SDS011;4807;48.024;11.726;2023-02-26T00:14:45;0.90;;;0.70;;
9536;SDS011;4807;48.024;11.726;2023-02-26T00:17:56;0.80;;;0.80;;
9536;SDS011;4807;48.024;11.726;2023-02-26T00:21:13;0.93;;;0.83;;
9536;SDS011;4807;48.024;11.726;2023-02-26T00:24:25;0.80;;;0.80;;
9536;SDS011;4807;48.024;11.726;2023-02-26T00:27:33;1.47;;;1.00;;
9536;SDS011;4807;48.024;11.726;2023-02-26T00:30:42;1.67;;;0.70;;
9536;SDS011;4807;48.024;11.726;2023-02-26T00:33:50;0.90;;;0.90;;
9536;SDS011;4807;48.024;11.726;2023-02-26T00:37:04;0.93;;;0.90;;
9536;SDS011;4807;48.024;11.726;2023-02-26T00:40:34;1.60;;;1.10;;
9536;SDS011;4807;48.024;11.726;2023-02-26T00:43:49;3.17;;;1.60;;
9536;SDS011;4807;48.024;11.726;2023-02-26T00:46:59;1.67;;;1.30;;
9536;SDS011;4807;48.024;11.726;2023-02-26T00:50:17;2.50;;;1.00;;
9536;SDS011;4807;48.024;11.726;2023-02-26T00:53:30;2.27;;;1.70;;
9536;SDS011;4807;48.024;11.726;2023-02-26T00:56:49;2.17;;;1.27;;
9536;SDS011;4807;48.024;11.726;2023-02-26T00:59:59;3.67;;;1.83;;
9536;SDS011;4807;48.024;11.726;2023-02-26T01:03:07;2.20;;;1.37;;
9536;SDS011;4807;48.024;11.726;2023-02-26T01:06:17;1.87;;;1.67;;
9536;SDS011;4807;48.024;11.726;2023-02-26T01:09:29;1.83;;;1.50;;
9536;SDS011;4807;48.024;11.726;2023-02-26T01:12:41;1.67;;;1.57;;
9536;SDS011;4807;48.024;11.726;2023-02-26T01:15:51;1.57;;;1.33;;
9536;SDS011;4807;48.024;11.726;2023-02-26T01:19:17;1.10;;;0.97;;
9536;SDS011;4807;48.024;11.726;2023-02-26T01:22:38;3.00;;;1.20;;
9536;SDS011;4807;48.024;11.726;2023-02-26T01:25:53;1.27;;;1.10;;
9536;SDS011;4807;48.024;11.726;2023-02-26T01:29:08;3.03;;;1.43;;
9536;SDS011;4807;48.024;11.726;2023-02-26T01:32:18;2.30;;;1.37;;
9536;SDS011;4807;48.024;11.726;2023-02-26T01:35:39;2.97;;;1.63;;
9536;SDS011;4807;48.024;11.726;2023-02-26T01:38:55;1.30;;;1.20;;
9536;SDS011;4807;48.024;11.726;2023-02-26T01:42:16;1.70;;;1.60;;
9536;SDS011;4807;48.024;11.726;2023-02-26T01:45:32;1.30;;;1.03;;
9536;SDS011;4807;48.024;11.726;2023-02-26T01:48:51;1.73;;;1.13;;
9536;SDS011;4807;48.024;11.726;2023-02-26T01:52:03;1.10;;;1.00;;
9536;SDS011;4807;48.024;11.726;2023-02-26T01:55:13;1.23;;;1.17;;
9536;SDS011;4807;48.024;11.726;2023-02-26T01:58:26;2.63;;;0.90;;
9536;SDS011;4807;48.024;11.726;2023-02-26T02:01:41;1.00;;;1.00;;
9536;SDS011;4807;48.024;11.726;2023-02-26T02:04:50;1.17;;;1.07;;
9536;SDS011;4807;48.024;11.726;2023-02-26T02:07:59;1.13;;;1.03;;
9536;SDS011;4807;48.024;11.726;2023-02-26T02:11:09;1.00;;;0.90;;
9536;SDS011;4807;48.024;11.726;2023-02-26T02:14:21;0.83;;;0.83;;
9536;SDS011;4807;48.024;11.726;2023-02-26T02:17:42;1.03;;;0.93;;
9536;SDS011;4807;48.024;11.726;2023-02-26T02:21:12;1.40;;;0.90;;
9536;SDS011;4807;48.024;11.726;2023-02-26T02:24:56;0.73;;;0.73;;
9536;SDS011;4807;48.024;11.726;2023-02-26T02:28:25;1.10;;;0.90;;
9536;SDS011;4807;48.024;11.726;2023-02-26T02:31:53;0.93;;;0.87;;
9536;SDS011;4807;48.024;11.726;2023-02-26T02:35:09;1.13;;;0.87;;
9536;SDS011;4807;48.024;11.726;2023-02-26T02:38:25;1.00;;;0.90;;
9536;SDS011;4807;48.024;11.726;2023-02-26T02:41:42;0.90;;;0.90;;
9536;SDS011;4807;48.024;11.726;2023-02-26T02:45:00;1.20;;;1.10;;
9536;SDS011;4807;48.024;11.726;2023-02-26T02:48:20;1.17;;;0.97;;
9536;SDS011;4807;48.024;11.726;2023-02-26T02:51:35;1.13;;;0.73;;
9536;SDS011;4807;48.024;11.726;2023-02-26T02:54:50;2.73;;;1.00;;
9536;SDS011;4807;48.024;11.726;2023-02-26T02:58:05;0.70;;;0.70;;
9536;SDS011;4807;48.024;11.726;2023-02-26T03:01:20;0.93;;;0.90;;
9536;SDS011;4807;48.024;11.726;2023-02-26T03:04:34;1.10;;;1.00;;
9536;SDS011;4807;48.024;11.726;2023-02-26T03:07:44;1.37;;;0.73;;
9536;SDS011;4807;48.024;11.726;2023-02-26T03:11:00;0.93;;;0.80;;
9536;SDS011;4807;48.024;11.726;2023-02-26T03:14:10;2.43;;;1.07;;
9536;SDS011;4807;48.024;11.726;2023-02-26T03:17:23;2.73;;;0.60;;
9536;SDS011;4807;48.024;11.726;2023-02-26T03:20:43;4.07;;;0.90;;
9536;SDS011;4807;48.024;11.726;2023-02-26T03:24:05;0.80;;;0.80;;
9536;SDS011;4807;48.024;11.726;2023-02-26T03:27:24;2.27;;;0.50;;
9536;SDS011;4807;48.024;11.726;2023-02-26T03:30:40;0.67;;;0.67;;
9536;SDS011;4807;48.024;11.726;2023-02-26T03:33:56;1.33;;;0.60;;
9536;SDS011;4807;48.024;11.726;2023-02-26T03:37:12;0.53;;;0.47;;
9536;SDS011;4807;48.024;11.726;2023-02-26T03:40:29;0.83;;;0.50;;
9536;SDS011;4807;48.024;11.726;2023-02-26T03:43:47;3.97;;;0.70;;
9536;SDS011;4807;48.024;11.726;2023-02-26T03:47:03;2.00;;;0.57;;
9536;SDS011;4807;48.024;11.726;2023-02-26T03:50:19;3.70;;;0.80;;
9536;SDS011;4807;48.024;11.726;2023-02-26T03:53:59;2.83;;;0.93;;
9536;SDS011;4807;48.024;11.726;2023-02-26T03:57:18;0.73;;;0.63;;
9536;SDS011;4807;48.024;11.726;2023-02-26T04:00:46;2.40;;;0.73;;
9536;SDS011;4807;48.024;11.726;2023-02-26T04:04:03;5.43;;;0.97;;
9536;SDS011;4807;48.024;11.726;2023-02-26T04:07:19;0.83;;;0.77;;
9536;SDS011;4807;48.024;11.726;2023-02-26T04:10:32;0.50;;;0.40;;
9536;SDS011;4807;48.024;11.726;2023-02-26T04:13:47;1.70;;;1.03;;
9536;SDS011;4807;48.024;11.726;2023-02-26T04:16:57;0.57;;;0.40;;
9536;SDS011;4807;48.024;11.726;2023-02-26T04:20:06;0.70;;;0.50;;
9536;SDS011;4807;48.024;11.726;2023-02-26T04:23:17;0.40;;;0.30;;
9536;SDS011;4807;48.024;11.726;2023-02-26T04:26:27;1.83;;;0.80;;
9536;SDS011;4807;48.024;11.726;2023-02-26T04:29:35;1.33;;;0.50;;
9536;SDS011;4807;48.024;11.726;2023-02-26T04:32:44;0.93;;;0.60;;
9536;SDS011;4807;48.024;11.726;2023-02-26T04:35:54;1.13;;;0.63;;
9536;SDS011;4807;48.024;11.726;2023-02-26T04:39:04;0.67;;;0.60;;
9536;SDS011;4807;48.024;11.726;2023-02-26T04:42:14;1.93;;;0.60;;
9536;SDS011;4807;48.024;11.726;2023-02-26T04:45:22;2.93;;;0.60;;
9536;SDS011;4807;48.024;11.726;2023-02-26T04:48:31;2.97;;;0.87;;
9536;SDS011;4807;48.024;11.726;2023-02-26T04:51:40;0.63;;;0.53;;
9536;SDS011;4807;48.024;11.726;2023-02-26T04:54:50;0.73;;;0.60;;
9536;SDS011;4807;48.024;11.726;2023-02-26T04:58:00;1.83;;;0.70;;
9536;SDS011;4807;48.024;11.726;2023-02-26T05:01:08;2.83;;;0.60;;
9536;SDS011;4807;48.024;11.726;2023-02-26T05:04:19;1.43;;;0.60;;
9536;SDS011;4807;48.024;11.726;2023-02-26T05:07:32;1.53;;;0.50;;
9536;SDS011;4807;48.024;11.726;2023-02-26T05:10:40;2.57;;;0.57;;
9536;SDS011;4807;48.024;11.726;2023-02-26T05:13:50;0.97;;;0.93;;
9536;SDS011;4807;48.024;11.726;2023-02-26T05:16:58;2.07;;;0.80;;
9536;SDS011;4807;48.024;11.726;2023-02-26T05:20:08;1.13;;;0.80;;
9536;SDS011;4807;48.024;11.726;2023-02-26T05:23:18;1.87;;;0.97;;
9536;SDS011;4807;48.024;11.726;2023-02-26T05:26:26;1.60;;;0.50;;
9536;SDS011;4807;48.024;11.726;2023-02-26T05:29:36;1.73;;;0.50;;
9536;SDS011;4807;48.024;11.726;2023-02-26T05:32:47;1.03;;;0.80;;
9536;SDS011;4807;48.024;11.726;2023-02-26T05:35:56;1.87;;;0.70;;
9536;SDS011;4807;48.024;11.726;2023-02-26T05:39:04;1.27;;;0.90;;
9536;SDS011;4807;48.024;11.726;2023-02-26T05:42:13;0.70;;;0.70;;
9536;SDS011;4807;48.024;11.726;2023-02-26T05:45:22;1.17;;;0.50;;
9536;SDS011;4807;48.024;11.726;2023-02-26T05:48:30;1.60;;;0.70;;
9536;SDS011;4807;48.024;11.726;2023-02-26T05:51:38;0.40;;;0.40;;
9536;SDS011;4807;48.024;11.726;2023-02-26T05:54:48;1.33;;;0.63;;
9536;SDS011;4807;48.024;11.726;2023-02-26T05:57:56;1.23;;;0.63;;
9536;SDS011;4807;48.024;11.726;2023-02-26T06:01:05;3.03;;;0.80;;
9536;SDS011;4807;48.024;11.726;2023-02-26T06:04:13;2.53;;;0.67;;
9536;SDS011;4807;48.024;11.726;2023-02-26T06:07:22;1.53;;;0.60;;
9536;SDS011;4807;48.024;11.726;2023-02-26T06:10:30;2.00;;;0.63;;
9536;SDS011;4807;48.024;11.726;2023-02-26T06:13:39;0.63;;;0.63;;
9536;SDS011;4807;48.024;11.726;2023-02-26T06:16:49;0.90;;;0.67;;
9536;SDS011;4807;48.024;11.726;2023-02-26T06:19:57;0.63;;;0.40;;
9536;SDS011;4807;48.024;11.726;2023-02-26T06:23:05;1.23;;;0.70;;
9536;SDS011;4807;48.024;11.726;2023-02-26T06:26:13;2.00;;;0.80;;
9536;SDS011;4807;48.024;11.726;2023-02-26T06:29:21;1.00;;;0.63;;
9536;SDS011;4807;48.024;11.726;2023-02-26T06:32:31;2.13;;;1.00;;
9536;SDS011;4807;48.024;11.726;2023-02-26T06:35:39;1.23;;;0.80;;
9536;SDS011;4807;48.024;11.726;2023-02-26T06:38:48;2.07;;;0.90;;
9536;SDS011;4807;48.024;11.726;2023-02-26T06:41:56;1.53;;;0.83;;
9536;SDS011;4807;48.024;11.726;2023-02-26T06:45:05;0.80;;;0.80;;
9536;SDS011;4807;48.024;11.726;2023-02-26T06:48:15;3.00;;;0.93;;
9536;SDS011;4807;48.024;11.726;2023-02-26T06:51:24;2.17;;;0.90;;
9536;SDS011;4807;48.024;11.726;2023-02-26T06:54:32;1.63;;;0.93;;
9536;SDS011;4807;48.024;11.726;2023-02-26T06:57:40;2.63;;;1.00;;
9536;SDS011;4807;48.024;11.726;2023-02-26T07:00:48;1.07;;;0.73;;
9536;SDS011;4807;48.024;11.726;2023-02-26T07:03:58;1.07;;;0.73;;
9536;SDS011;4807;48.024;11.726;2023-02-26T07:07:07;1.83;;;0.50;;
9536;SDS011;4807;48.024;11.726;2023-02-26T07:10:15;3.10;;;1.07;;
9536;SDS011;4807;48.024;11.726;2023-02-26T07:13:23;1.27;;;1.00;;
9536;SDS011;4807;48.024;11.726;2023-02-26T07:16:32;1.37;;;0.80;;
9536;SDS011;4807;48.024;11.726;2023-02-26T07:19:41;2.20;;;0.93;;
9536;SDS011;4807;48.024;11.726;2023-02-26T07:22:49;1.40;;;0.77;;
9536;SDS011;4807;48.024;11.726;2023-02-26T07:25:58;2.67;;;0.70;;
9536;SDS011;4807;48.024;11.726;2023-02-26T07:29:06;1.33;;;0.90;;
9536;SDS011;4807;48.024;11.726;2023-02-26T07:32:14;3.70;;;0.90;;
9536;SDS011;4807;48.024;11.726;2023-02-26T07:35:24;2.20;;;0.80;;
9536;SDS011;4807;48.024;11.726;2023-02-26T07:38:32;3.10;;;1.20;;
9536;SDS011;4807;48.024;11.726;2023-02-26T07:41:40;4.73;;;2.77;;
9536;SDS011;4807;48.024;11.726;2023-02-26T07:44:53;1.47;;;0.90;;
9536;SDS011;4807;48.024;11.726;2023-02-26T07:48:01;2.77;;;1.60;;
9536;SDS011;4807;48.024;11.726;2023-02-26T07:51:11;9.97;;;3.97;;
9536;SDS011;4807;48.024;11.726;2023-02-26T07:54:19;2.83;;;1.27;;
9536;SDS011;4807;48.024;11.726;2023-02-26T07:57:27;2.43;;;0.87;;
9536;SDS011;4807;48.024;11.726;2023-02-26T08:00:35;0.83;;;0.67;;
9536;SDS011;4807;48.024;11.726;2023-02-26T08:03:44;1.23;;;0.90;;
9536;SDS011;4807;48.024;11.726;2023-02-26T08:06:53;2.23;;;0.97;;
9536;SDS011;4807;48.024;11.726;2023-02-26T08:10:02;3.28;;;1.15;;
9536;SDS011;4807;48.024;11.726;2023-02-26T08:13:12;1.53;;;1.10;;
9536;SDS011;4807;48.024;11.726;2023-02-26T08:16:20;0.80;;;0.80;;
9536;SDS011;4807;48.024;11.726;2023-02-26T08:19:29;2.50;;;1.00;;
9536;SDS011;4807;48.024;11.726;2023-02-26T08:22:39;0.87;;;0.83;;
9536;SDS011;4807;48.024;11.726;2023-02-26T08:25:47;2.47;;;1.00;;
9536;SDS011;4807;48.024;11.726;2023-02-26T08:28:56;2.27;;;0.80;;
9536;SDS011;4807;48.024;11.726;2023-02-26T08:32:04;2.80;;;1.07;;
9536;SDS011;4807;48.024;11.726;2023-02-26T08:35:12;1.20;;;0.80;;
9536;SDS011;4807;48.024;11.726;2023-02-26T08:38:22;1.87;;;0.90;;
9536;SDS011;4807;48.024;11.726;2023-02-26T08:41:30;2.23;;;1.20;;
9536;SDS011;4807;48.024;11.726;2023-02-26T08:44:38;1.10;;;1.00;;
9536;SDS011;4807;48.024;11.726;2023-02-26T08:47:46;1.37;;;0.80;;
9536;SDS011;4807;48.024;11.726;2023-02-26T08:51:02;2.50;;;1.00;;
9536;SDS011;4807;48.024;11.726;2023-02-26T08:54:12;1.50;;;1.03;;
9536;SDS011;4807;48.024;11.726;2023-02-26T08:57:21;1.20;;;1.00;;
9536;SDS011;4807;48.024;11.726;2023-02-26T09:00:29;1.23;;;1.10;;
9536;SDS011;4807;48.024;11.726;2023-02-26T09:03:38;2.50;;;1.03;;
9536;SDS011;4807;48.024;11.726;2023-02-26T09:06:46;1.93;;;1.10;;
9536;SDS011;4807;48.024;11.726;2023-02-26T09:09:56;2.70;;;1.47;;
9536;SDS011;4807;48.024;11.726;2023-02-26T09:13:04;1.30;;;1.20;;
9536;SDS011;4807;48.024;11.726;2023-02-26T09:16:12;1.10;;;1.00;;
9536;SDS011;4807;48.024;11.726;2023-02-26T09:19:20;1.37;;;1.00;;
9536;SDS011;4807;48.024;11.726;2023-02-26T09:22:29;2.93;;;1.47;;
9536;SDS011;4807;48.024;11.726;2023-02-26T09:25:41;2.10;;;1.50;;
9536;SDS011;4807;48.024;11.726;2023-02-26T09:28:50;2.17;;;1.83;;
9536;SDS011;4807;48.024;11.726;2023-02-26T09:31:58;2.23;;;1.50;;
9536;SDS011;4807;48.024;11.726;2023-02-26T09:35:07;1.33;;;1.23;;
9536;SDS011;4807;48.024;11.726;2023-02-26T09:38:17;2.33;;;1.30;;
9536;SDS011;4807;48.024;11.726;2023-02-26T09:41:27;1.30;;;1.20;;
9536;SDS011;4807;48.024;11.726;2023-02-26T09:44:40;1.20;;;1.10;;
9536;SDS011;4807;48.024;11.726;2023-02-26T09:47:49;2.10;;;1.00;;
9536;SDS011;4807;48.024;11.726;2023-02-26T09:51:00;2.23;;;1.50;;
9536;SDS011;4807;48.024;11.726;2023-02-26T09:54:13;2.33;;;1.13;;
9536;SDS011;4807;48.024;11.726;2023-02-26T09:57:30;1.50;;;1.40;;
9536;SDS011;4807;48.024;11.726;2023-02-26T10:00:43;2.30;;;1.40;;
9536;SDS011;4807;48.024;11.726;2023-02-26T10:04:04;1.37;;;1.27;;
9536;SDS011;4807;48.024;11.726;2023-02-26T10:07:24;1.13;;;1.10;;
9536;SDS011;4807;48.024;11.726;2023-02-26T10:10:47;4.50;;;1.67;;
9536;SDS011;4807;48.024;11.726;2023-02-26T10:14:05;1.40;;;1.30;;
9536;SDS011;4807;48.024;11.726;2023-02-26T10:17:25;1.10;;;1.00;;
9536;SDS011;4807;48.024;11.726;2023-02-26T10:20:42;2.33;;;1.30;;
9536;SDS011;4807;48.024;11.726;2023-02-26T10:24:03;1.13;;;1.03;;
9536;SDS011;4807;48.024;11.726;2023-02-26T10:27:21;1.50;;;0.90;;
9536;SDS011;4807;48.024;11.726;2023-02-26T10:30:48;1.30;;;1.20;;
9536;SDS011;4807;48.024;11.726;2023-02-26T10:34:09;3.10;;;2.83;;
9536;SDS011;4807;48.024;11.726;2023-02-26T10:37:34;1.47;;;1.37;;
9536;SDS011;4807;48.024;11.726;2023-02-26T10:40:54;1.60;;;1.03;;
9536;SDS011;4807;48.024;11.726;2023-02-26T10:44:12;1.00;;;0.90;;
9536;SDS011;4807;48.024;11.726;2023-02-26T10:47:33;1.67;;;1.17;;
9536;SDS011;4807;48.024;11.726;2023-02-26T10:50:54;1.67;;;1.33;;
9536;SDS011;4807;48.024;11.726;2023-02-26T10:54:11;1.17;;;1.00;;
9536;SDS011;4807;48.024;11.726;2023-02-26T10:57:27;1.33;;;1.23;;
9536;SDS011;4807;48.024;11.726;2023-02-26T11:00:42;2.20;;;1.20;;
9536;SDS011;4807;48.024;11.726;2023-02-26T11:03:57;4.27;;;2.37;;
9536;SDS011;4807;48.024;11.726;2023-02-26T11:07:11;1.40;;;1.30;;
9536;SDS011;4807;48.024;11.726;2023-02-26T11:10:22;1.40;;;1.30;;
9536;SDS011;4807;48.024;11.726;2023-02-26T11:13:34;1.30;;;1.20;;
9536;SDS011;4807;48.024;11.726;2023-02-26T11:16:46;1.50;;;1.40;;
9536;SDS011;4807;48.024;11.726;2023-02-26T11:20:01;1.63;;;1.27;;
9536;SDS011;4807;48.024;11.726;2023-02-26T11:23:22;1.27;;;1.17;;
9536;SDS011;4807;48.024;11.726;2023-02-26T11:26:38;1.60;;;1.50;;
9536;SDS011;4807;48.024;11.726;2023-02-26T11:29:53;2.00;;;1.60;;
9536;SDS011;4807;48.024;11.726;2023-02-26T11:33:05;1.90;;;1.80;;
9536;SDS011;4807;48.024;11.726;2023-02-26T11:36:27;1.80;;;1.63;;
9536;SDS011;4807;48.024;11.726;2023-02-26T11:39:39;2.17;;;1.83;;
9536;SDS011;4807;48.024;11.726;2023-02-26T11:42:50;1.60;;;1.50;;
9536;SDS011;4807;48.024;11.726;2023-02-26T11:46:02;1.33;;;1.23;;
9536;SDS011;4807;48.024;11.726;2023-02-26T11:49:13;1.40;;;1.30;;
9536;SDS011;4807;48.024;11.726;2023-02-26T11:52:28;1.40;;;1.30;;
9536;SDS011;4807;48.024;11.726;2023-02-26T11:55:42;1.60;;;1.50;;
9536;SDS011;4807;48.024;11.726;2023-02-26T11:58:53;0.90;;;0.90;;
9536;SDS011;4807;48.024;11.726;2023-02-26T12:02:08;1.07;;;0.97;;
9536;SDS011;4807;48.024;11.726;2023-02-26T12:05:19;1.67;;;1.03;;
9536;SDS011;4807;48.024;11.726;2023-02-26T12:08:30;1.17;;;1.07;;
9536;SDS011;4807;48.024;11.726;2023-02-26T12:15:57;1.33;;;0.83;;
9536;SDS011;4807;48.024;11.726;2023-02-26T12:19:20;1.40;;;1.30;;
9536;SDS011;4807;48.024;11.726;2023-02-26T12:22:48;0.90;;;0.90;;
9536;SDS011;4807;48.024;11.726;2023-02-26T12:26:10;1.67;;;1.40;;
9536;SDS011;4807;48.024;11.726;2023-02-26T12:29:40;1.40;;;1.27;;
9536;SDS011;4807;48.024;11.726;2023-02-26T12:33:09;0.70;;;0.67;;
9536;SDS011;4807;48.024;11.726;2023-02-26T12:36:35;1.73;;;0.80;;
9536;SDS011;4807;48.024;11.726;2023-02-26T12:40:04;0.70;;;0.70;;
9536;SDS011;4807;48.024;11.726;2023-02-26T12:43:48;0.50;;;0.50;;
9536;SDS011;4807;48.024;11.726;2023-02-26T12:47:14;0.87;;;0.67;;
9536;SDS011;4807;48.024;11.726;2023-02-26T12:50:42;0.73;;;0.73;;
9536;SDS011;4807;48.024;11.726;2023-02-26T12:54:19;0.60;;;0.50;;
9536;SDS011;4807;48.024;11.726;2023-02-26T12:58:17;0.70;;;0.47;;
9536;SDS011;4807;48.024;11.726;2023-02-26T13:02:09;0.70;;;0.70;;
9536;SDS011;4807;48.024;11.726;2023-02-26T13:10:14;1.10;;;0.93;;
9536;SDS011;4807;48.024;11.726;2023-02-26T13:13:38;0.80;;;0.80;;
9536;SDS011;4807;48.024;11.726;2023-02-26T13:17:05;1.10;;;1.00;;
9536;SDS011;4807;48.024;11.726;2023-02-26T13:20:30;1.60;;;0.90;;
9536;SDS011;4807;48.024;11.726;2023-02-26T13:23:45;1.20;;;1.10;;
9536;SDS011;4807;48.024;11.726;2023-02-26T13:26:58;1.23;;;1.13;;
9536;SDS011;4807;48.024;11.726;2023-02-26T13:30:17;0.90;;;0.90;;
9536;SDS011;4807;48.024;11.726;2023-02-26T13:33:34;1.00;;;0.80;;
9536;SDS011;4807;48.024;11.726;2023-02-26T13:36:47;0.73;;;0.73;;
9536;SDS011;4807;48.024;11.726;2023-02-26T13:40:02;0.70;;;0.70;;
9536;SDS011;4807;48.024;11.726;2023-02-26T13:43:43;0.70;;;0.70;;
9536;SDS011;4807;48.024;11.726;2023-02-26T13:47:20;0.63;;;0.63;;
9536;SDS011;4807;48.024;11.726;2023-02-26T13:50:55;0.60;;;0.60;;
9536;SDS011;4807;48.024;11.726;2023-02-26T13:57:51;0.70;;;0.70;;
9536;SDS011;4807;48.024;11.726;2023-02-26T14:01:03;1.40;;;0.70;;
9536;SDS011;4807;48.024;11.726;2023-02-26T14:04:23;1.57;;;0.90;;
9536;SDS011;4807;48.024;11.726;2023-02-26T14:07:47;2.17;;;0.80;;
9536;SDS011;4807;48.024;11.726;2023-02-26T14:11:03;0.73;;;0.73;;
9536;SDS011;4807;48.024;11.726;2023-02-26T14:15:16;0.70;;;0.70;;
9536;SDS011;4807;48.024;11.726;2023-02-26T14:18:39;1.00;;;0.80;;
9536;SDS011;4807;48.024;11.726;2023-02-26T14:22:01;0.93;;;0.90;;
9536;SDS011;4807;48.024;11.726;2023-02-26T14:25:29;1.43;;;0.70;;
9536;SDS011;4807;48.024;11.726;2023-02-26T14:28:53;0.80;;;0.80;;
9536;SDS011;4807;48.024;11.726;2023-02-26T14:32:21;0.80;;;0.80;;
9536;SDS011;4807;48.024;11.726;2023-02-26T14:35:40;3.10;;;1.20;;
9536;SDS011;4807;48.024;11.726;2023-02-26T14:39:01;0.70;;;0.70;;
9536;SDS011;4807;48.024;11.726;2023-02-26T14:42:19;0.50;;;0.50;;
9536;SDS011;4807;48.024;11.726;2023-02-26T14:45:40;0.80;;;0.80;;
9536;SDS011;4807;48.024;11.726;2023-02-26T14:48:52;1.80;;;0.83;;
9536;SDS011;4807;48.024;11.726;2023-02-26T14:52:15;1.07;;;0.90;;
9536;SDS011;4807;48.024;11.726;2023-02-26T14:55:50;0.50;;;0.50;;
9536;SDS011;4807;48.024;11.726;2023-02-26T14:59:19;1.60;;;0.60;;
9536;SDS011;4807;48.024;11.726;2023-02-26T15:02:59;1.10;;;0.43;;
9536;SDS011;4807;48.024;11.726;2023-02-26T15:06:49;0.50;;;0.50;;
9536;SDS011;4807;48.024;11.726;2023-02-26T15:10:30;0.60;;;0.60;;
9536;SDS011;4807;48.024;11.726;2023-02-26T15:14:03;3.90;;;2.17;;
9536;SDS011;4807;48.024;11.726;2023-02-26T15:17:35;1.20;;;1.10;;
9536;SDS011;4807;48.024;11.726;2023-02-26T15:21:05;0.80;;;0.80;;
9536;SDS011;4807;48.024;11.726;2023-02-26T15:24:31;0.90;;;0.70;;
9536;SDS011;4807;48.024;11.726;2023-02-26T15:27:41;1.17;;;0.90;;
9536;SDS011;4807;48.024;11.726;2023-02-26T15:30:55;0.60;;;0.60;;
9536;SDS011;4807;48.024;11.726;2023-02-26T15:34:09;1.37;;;0.93;;
9536;SDS011;4807;48.024;11.726;2023-02-26T15:37:22;6.33;;;2.00;;
9536;SDS011;4807;48.024;11.726;2023-02-26T15:40:34;1.93;;;0.97;;
9536;SDS011;4807;48.024;11.726;2023-02-26T15:43:46;3.13;;;1.00;;
9536;SDS011;4807;48.024;11.726;2023-02-26T15:47:01;2.10;;;0.57;;
9536;SDS011;4807;48.024;11.726;2023-02-26T15:50:13;1.07;;;0.97;;
9536;SDS011;4807;48.024;11.726;2023-02-26T15:53:27;0.70;;;0.67;;
9536;SDS011;4807;48.024;11.726;2023-02-26T15:56:40;1.63;;;0.97;;
9536;SDS011;4807;48.024;11.726;2023-02-26T15:59:51;0.80;;;0.80;;
9536;SDS011;4807;48.024;11.726;2023-02-26T16:03:22;0.70;;;0.60;;
9536;SDS011;4807;48.024;11.726;2023-02-26T16:06:35;1.33;;;0.80;;
9536;SDS011;4807;48.024;11.726;2023-02-26T16:09:48;0.70;;;0.70;;
9536;SDS011;4807;48.024;11.726;2023-02-26T16:13:01;0.67;;;0.63;;
9536;SDS011;4807;48.024;11.726;2023-02-26T16:16:14;1.63;;;1.43;;
9536;SDS011;4807;48.024;11.726;2023-02-26T16:19:32;0.87;;;0.83;;
9536;SDS011;4807;48.024;11.726;2023-02-26T16:22:45;2.57;;;1.50;;
9536;SDS011;4807;48.024;11.726;2023-02-26T16:25:57;1.23;;;1.13;;
9536;SDS011;4807;48.024;11.726;2023-02-26T16:29:10;0.77;;;0.77;;
9536;SDS011;4807;48.024;11.726;2023-02-26T16:32:27;1.90;;;0.80;;
9536;SDS011;4807;48.024;11.726;2023-02-26T16:35:42;2.10;;;1.73;;
9536;SDS011;4807;48.024;11.726;2023-02-26T16:39:07;1.83;;;1.47;;
9536;SDS011;4807;48.024;11.726;2023-02-26T16:42:35;1.50;;;1.07;;
9536;SDS011;4807;48.024;11.726;2023-02-26T16:45:55;1.07;;;0.97;;
9536;SDS011;4807;48.024;11.726;2023-02-26T16:49:09;2.70;;;1.50;;
9536;SDS011;4807;48.024;11.726;2023-02-26T16:52:31;3.37;;;1.93;;
9536;SDS011;4807;48.024;11.726;2023-02-26T16:55:40;2.43;;;1.40;;
9536;SDS011;4807;48.024;11.726;2023-02-26T16:59:00;4.90;;;2.07;;
9536;SDS011;4807;48.024;11.726;2023-02-26T17:02:12;2.57;;;1.57;;
9536;SDS011;4807;48.024;11.726;2023-02-26T17:05:25;1.63;;;1.30;;
9536;SDS011;4807;48.024;11.726;2023-02-26T17:08:45;2.87;;;1.27;;
9536;SDS011;4807;48.024;11.726;2023-02-26T17:12:05;2.33;;;1.67;;
9536;SDS011;4807;48.024;11.726;2023-02-26T17:15:25;2.30;;;1.87;;
9536;SDS011;4807;48.024;11.726;2023-02-26T17:18:37;3.43;;;1.63;;
9536;SDS011;4807;48.024;11.726;2023-02-26T17:21:46;1.73;;;1.63;;
9536;SDS011;4807;48.024;11.726;2023-02-26T17:25:04;2.63;;;1.70;;
9536;SDS011;4807;48.024;11.726;2023-02-26T17:28:14;2.83;;;2.03;;
9536;SDS011;4807;48.024;11.726;2023-02-26T17:31:28;3.43;;;2.70;;
9536;SDS011;4807;48.024;11.726;2023-02-26T17:34:36;2.87;;;1.93;;
9536;SDS011;4807;48.024;11.726;2023-02-26T17:37:44;2.23;;;1.70;;
9536;SDS011;4807;48.024;11.726;2023-02-26T17:40:54;3.20;;;1.73;;
9536;SDS011;4807;48.024;11.726;2023-02-26T17:44:03;10.17;;;6.60;;
9536;SDS011;4807;48.024;11.726;2023-02-26T17:47:12;8.83;;;5.87;;
9536;SDS011;4807;48.024;11.726;2023-02-26T17:50:28;6.50;;;4.50;;
9536;SDS011;4807;48.024;11.726;2023-02-26T17:53:47;3.67;;;3.37;;
9536;SDS011;4807;48.024;11.726;2023-02-26T17:56:57;4.37;;;3.40;;
9536;SDS011;4807;48.024;11.726;2023-02-26T18:00:06;4.10;;;3.30;;
9536;SDS011;4807;48.024;11.726;2023-02-26T18:03:23;2.93;;;1.90;;
9536;SDS011;4807;48.024;11.726;2023-02-26T18:06:34;6.00;;;2.03;;
9536;SDS011;4807;48.024;11.726;2023-02-26T18:09:44;2.77;;;1.87;;
9536;SDS011;4807;48.024;11.726;2023-02-26T18:12:55;1.90;;;1.70;;
9536;SDS011;4807;48.024;11.726;2023-02-26T18:16:05;2.13;;;1.93;;
9536;SDS011;4807;48.024;11.726;2023-02-26T18:19:21;2.63;;;1.70;;
9536;SDS011;4807;48.024;11.726;2023-02-26T18:22:29;1.87;;;1.10;;
9536;SDS011;4807;48.024;11.726;2023-02-26T18:25:38;2.77;;;1.90;;
9536;SDS011;4807;48.024;11.726;2023-02-26T18:28:49;1.53;;;1.43;;
9536;SDS011;4807;48.024;11.726;2023-02-26T18:35:40;1.67;;;1.30;;
9536;SDS011;4807;48.024;11.726;2023-02-26T18:38:51;1.73;;;1.60;;
9536;SDS011;4807;48.024;11.726;2023-02-26T18:41:59;1.83;;;1.43;;
9536;SDS011;4807;48.024;11.726;2023-02-26T18:45:09;2.33;;;1.80;;
9536;SDS011;4807;48.024;11.726;2023-02-26T18:48:19;1.77;;;1.30;;
9536;SDS011;4807;48.024;11.726;2023-02-26T18:51:27;1.67;;;1.40;;
9536;SDS011;4807;48.024;11.726;2023-02-26T18:54:36;1.50;;;1.10;;
9536;SDS011;4807;48.024;11.726;2023-02-26T18:57:45;2.00;;;1.27;;
9536;SDS011;4807;48.024;11.726;2023-02-26T19:00:59;4.57;;;1.20;;
9536;SDS011;4807;48.024;11.726;2023-02-26T19:04:10;1.90;;;0.83;;
9536;SDS011;4807;48.024;11.726;2023-02-26T19:07:18;1.30;;;1.20;;
9536;SDS011;4807;48.024;11.726;2023-02-26T19:10:27;2.47;;;1.17;;
9536;SDS011;4807;48.024;11.726;2023-02-26T19:13:37;1.23;;;1.17;;
9536;SDS011;4807;48.024;11.726;2023-02-26T19:16:50;1.20;;;1.10;;
9536;SDS011;4807;48.024;11.726;2023-02-26T19:20:00;1.20;;;1.10;;
9536;SDS011;4807;48.024;11.726;2023-02-26T19:23:10;0.93;;;0.90;;
9536;SDS011;4807;48.024;11.726;2023-02-26T19:26:19;1.73;;;0.87;;
9536;SDS011;4807;48.024;11.726;2023-02-26T19:29:28;1.03;;;0.93;;
9536;SDS011;4807;48.024;11.726;2023-02-26T19:32:40;1.17;;;0.90;;
9536;SDS011;4807;48.024;11.726;2023-02-26T19:35:48;1.43;;;1.30;;
9536;SDS011;4807;48.024;11.726;2023-02-26T19:38:58;1.40;;;1.30;;
9536;SDS011;4807;48.024;11.726;2023-02-26T19:42:07;2.97;;;1.40;;
9536;SDS011;4807;48.024;11.726;2023-02-26T19:45:16;3.73;;;1.50;;
9536;SDS011;4807;48.024;11.726;2023-02-26T19:48:26;1.73;;;1.20;;
9536;SDS011;4807;48.024;11.726;2023-02-26T19:51:37;3.57;;;1.60;;
9536;SDS011;4807;48.024;11.726;2023-02-26T19:54:46;1.53;;;1.17;;
9536;SDS011;4807;48.024;11.726;2023-02-26T19:57:54;2.47;;;1.20;;
9536;SDS011;4807;48.024;11.726;2023-02-26T20:01:04;1.43;;;1.23;;
9536;SDS011;4807;48.024;11.726;2023-02-26T20:04:15;2.00;;;1.40;;
9536;SDS011;4807;48.024;11.726;2023-02-26T20:07:24;1.53;;;1.17;;